Etihad Airways Virtual Airport Information Service

Dubai International Airport

ICAO: OMDB Country: United Arab Emirates
Latitude: 25.2528 Longitude: 55.3644
Latest Arrival : ETDJUMP (LIMC-OMDB) Latest Departure : ETDJUMP (OMDB-EDDM)


WX CaptureLIVE
Data provided by noaa.gov | Recorded at 15:56:24

METAR : OMDB 181500Z 27005KT CAVOK 24/16 Q1015 NOSIG

TAF : OMDB 181100Z 1812/1918 28010KT CAVOK BECMG 1816/1818 20005KT PROB40 1820/1906 3000 HZ BKN005 PROB30 TEMPO 1822/1904 0500 BCFG BKN001 BECMG 1907/1909 29010KT BECMG 1916/1918 20005KT


Runway Data for OMDB
Data provided by openaviationdata.com

Runway ID Mag Var Hdg Length Elevation Surface ILS Freq ILS Id ILS Slope

Dubai International Airport, United Arab Emirates
Use only for reference purposes